Lime Valley, Pennsylvania
Current Conditions -  °F | °C
As of 6:53 PM on Sunday 25 Jan 2015 (Local Time) from KLNS Reporting Station
Overcast Overcast  
Wind Chill: 37°   Ceiling: 7500
Heat Index: 37°   Visibility: 8mi
Dew Point: 32°   Wind: 0mph
Humidity: 82%   Direction: NA
Pressure: 29.87"   Gusts: NA
Location:  39.9601°N, 76.2683°W
Report Text: KLNS 252353Z 00000KT 8SM FEW055 OVC075 03/00 A2987 RMK AO2 RAE26UPB2254E2258 SLP119 P0000 60000 T00280000 10039 20028 53022
Loading
Personal Weather Stations






























Interactive Weather Map New forecast layout! Learn more

10-Day Weather Forecast

Advertisements
Track Severe Weather on mobile